sensor_id;sensor_type;location;lat;lon;timestamp;temperature;humidity
6102;DHT22;3081;50.584;7.032;2023-04-02T00:02:24;8.80;99.90
6102;DHT22;3081;50.584;7.032;2023-04-02T00:05:36;8.90;99.90
6102;DHT22;3081;50.584;7.032;2023-04-02T00:08:20;8.90;99.90
6102;DHT22;3081;50.584;7.032;2023-04-02T00:10:50;8.80;99.90
6102;DHT22;3081;50.584;7.032;2023-04-02T00:13:28;8.80;99.90
6102;DHT22;3081;50.584;7.032;2023-04-02T00:15:57;8.90;99.90
6102;DHT22;3081;50.584;7.032;2023-04-02T00:18:25;8.80;99.90
6102;DHT22;3081;50.584;7.032;2023-04-02T00:20:57;8.80;99.90
6102;DHT22;3081;50.584;7.032;2023-04-02T00:23:26;8.80;99.90
6102;DHT22;3081;50.584;7.032;2023-04-02T00:25:55;8.70;99.90
6102;DHT22;3081;50.584;7.032;2023-04-02T00:28:22;8.70;99.90
6102;DHT22;3081;50.584;7.032;2023-04-02T00:30:52;8.70;99.90
6102;DHT22;3081;50.584;7.032;2023-04-02T00:33:21;8.80;99.90
6102;DHT22;3081;50.584;7.032;2023-04-02T00:35:50;8.80;99.90
6102;DHT22;3081;50.584;7.032;2023-04-02T00:38:21;8.80;99.90
6102;DHT22;3081;50.584;7.032;2023-04-02T00:40:49;8.80;99.90
6102;DHT22;3081;50.584;7.032;2023-04-02T00:43:18;8.70;99.90
6102;DHT22;3081;50.584;7.032;2023-04-02T00:45:48;8.80;99.90
6102;DHT22;3081;50.584;7.032;2023-04-02T00:48:38;8.80;99.90
6102;DHT22;3081;50.584;7.032;2023-04-02T00:51:13;8.80;99.90
6102;DHT22;3081;50.584;7.032;2023-04-02T00:53:43;8.80;99.90
6102;DHT22;3081;50.584;7.032;2023-04-02T00:56:15;8.80;99.90
6102;DHT22;3081;50.584;7.032;2023-04-02T00:58:49;8.80;99.90
6102;DHT22;3081;50.584;7.032;2023-04-02T01:01:18;8.90;99.90
6102;DHT22;3081;50.584;7.032;2023-04-02T01:03:57;8.90;99.90
6102;DHT22;3081;50.584;7.032;2023-04-02T01:06:27;9.00;99.90
6102;DHT22;3081;50.584;7.032;2023-04-02T01:09:21;9.00;99.90
6102;DHT22;3081;50.584;7.032;2023-04-02T01:12:19;8.90;99.90
6102;DHT22;3081;50.584;7.032;2023-04-02T01:14:57;9.00;99.90
6102;DHT22;3081;50.584;7.032;2023-04-02T01:17:38;8.90;99.90
6102;DHT22;3081;50.584;7.032;2023-04-02T01:23:19;8.90;99.90
6102;DHT22;3081;50.584;7.032;2023-04-02T01:25:55;8.90;99.90
6102;DHT22;3081;50.584;7.032;2023-04-02T01:28:26;8.90;99.90
6102;DHT22;3081;50.584;7.032;2023-04-02T01:30:56;8.90;99.90
6102;DHT22;3081;50.584;7.032;2023-04-02T01:33:28;8.90;99.90
6102;DHT22;3081;50.584;7.032;2023-04-02T01:36:03;8.80;99.90
6102;DHT22;3081;50.584;7.032;2023-04-02T01:38:36;8.90;99.90
6102;DHT22;3081;50.584;7.032;2023-04-02T01:41:07;8.90;99.90
6102;DHT22;3081;50.584;7.032;2023-04-02T01:43:41;8.90;99.90
6102;DHT22;3081;50.584;7.032;2023-04-02T01:46:24;8.90;99.90
6102;DHT22;3081;50.584;7.032;2023-04-02T01:48:52;9.00;99.90
6102;DHT22;3081;50.584;7.032;2023-04-02T01:51:26;9.00;99.90
6102;DHT22;3081;50.584;7.032;2023-04-02T01:53:54;9.00;99.90
6102;DHT22;3081;50.584;7.032;2023-04-02T01:56:22;9.00;99.90
6102;DHT22;3081;50.584;7.032;2023-04-02T01:58:49;9.10;99.90
6102;DHT22;3081;50.584;7.032;2023-04-02T02:01:17;9.10;99.90
6102;DHT22;3081;50.584;7.032;2023-04-02T02:03:46;9.10;99.90
6102;DHT22;3081;50.584;7.032;2023-04-02T02:06:16;9.10;99.90
6102;DHT22;3081;50.584;7.032;2023-04-02T02:08:46;9.10;99.90
6102;DHT22;3081;50.584;7.032;2023-04-02T02:11:17;9.20;99.90
6102;DHT22;3081;50.584;7.032;2023-04-02T02:13:45;9.20;99.90
6102;DHT22;3081;50.584;7.032;2023-04-02T02:16:15;9.30;99.90
6102;DHT22;3081;50.584;7.032;2023-04-02T02:18:47;9.40;99.90
6102;DHT22;3081;50.584;7.032;2023-04-02T02:21:20;9.40;99.90
6102;DHT22;3081;50.584;7.032;2023-04-02T02:23:49;9.40;99.90
6102;DHT22;3081;50.584;7.032;2023-04-02T02:26:17;9.40;99.90
6102;DHT22;3081;50.584;7.032;2023-04-02T02:28:44;9.40;99.90
6102;DHT22;3081;50.584;7.032;2023-04-02T02:31:17;9.40;99.90
6102;DHT22;3081;50.584;7.032;2023-04-02T02:33:50;9.40;99.90
6102;DHT22;3081;50.584;7.032;2023-04-02T02:36:23;9.50;99.90
6102;DHT22;3081;50.584;7.032;2023-04-02T02:38:53;9.50;99.90
6102;DHT22;3081;50.584;7.032;2023-04-02T02:41:25;9.60;99.90
6102;DHT22;3081;50.584;7.032;2023-04-02T02:43:59;9.60;99.90
6102;DHT22;3081;50.584;7.032;2023-04-02T02:46:29;9.50;99.90
6102;DHT22;3081;50.584;7.032;2023-04-02T02:48:59;9.50;99.90
6102;DHT22;3081;50.584;7.032;2023-04-02T02:51:38;9.50;99.90
6102;DHT22;3081;50.584;7.032;2023-04-02T02:54:06;9.60;99.90
6102;DHT22;3081;50.584;7.032;2023-04-02T02:56:36;9.60;99.90
6102;DHT22;3081;50.584;7.032;2023-04-02T02:59:07;9.70;99.90
6102;DHT22;3081;50.584;7.032;2023-04-02T03:01:36;9.70;99.90
6102;DHT22;3081;50.584;7.032;2023-04-02T03:04:04;9.70;99.90
6102;DHT22;3081;50.584;7.032;2023-04-02T03:06:31;9.70;99.90
6102;DHT22;3081;50.584;7.032;2023-04-02T03:09:02;9.70;99.90
6102;DHT22;3081;50.584;7.032;2023-04-02T03:11:35;9.70;99.90
6102;DHT22;3081;50.584;7.032;2023-04-02T03:14:11;9.70;99.90
6102;DHT22;3081;50.584;7.032;2023-04-02T03:16:43;9.70;99.90
6102;DHT22;3081;50.584;7.032;2023-04-02T03:19:23;9.70;99.90
6102;DHT22;3081;50.584;7.032;2023-04-02T03:21:57;9.70;99.90
6102;DHT22;3081;50.584;7.032;2023-04-02T03:24:32;9.70;99.90
6102;DHT22;3081;50.584;7.032;2023-04-02T03:27:03;9.70;99.90
6102;DHT22;3081;50.584;7.032;2023-04-02T03:29:33;9.70;99.90
6102;DHT22;3081;50.584;7.032;2023-04-02T03:32:04;9.70;99.90
6102;DHT22;3081;50.584;7.032;2023-04-02T03:34:38;9.70;99.90
6102;DHT22;3081;50.584;7.032;2023-04-02T03:37:11;9.70;99.90
6102;DHT22;3081;50.584;7.032;2023-04-02T03:39:42;9.70;99.90
6102;DHT22;3081;50.584;7.032;2023-04-02T03:42:14;9.70;99.90
6102;DHT22;3081;50.584;7.032;2023-04-02T03:44:45;9.70;99.90
6102;DHT22;3081;50.584;7.032;2023-04-02T03:47:17;9.70;99.90
6102;DHT22;3081;50.584;7.032;2023-04-02T03:49:50;9.70;99.90
6102;DHT22;3081;50.584;7.032;2023-04-02T03:52:24;9.70;99.90
6102;DHT22;3081;50.584;7.032;2023-04-02T03:54:51;9.70;99.90
6102;DHT22;3081;50.584;7.032;2023-04-02T03:57:26;9.70;99.90
6102;DHT22;3081;50.584;7.032;2023-04-02T03:59:58;9.70;99.90
6102;DHT22;3081;50.584;7.032;2023-04-02T04:02:37;9.70;99.90
6102;DHT22;3081;50.584;7.032;2023-04-02T04:05:18;9.60;99.90
6102;DHT22;3081;50.584;7.032;2023-04-02T04:07:50;9.60;99.90
6102;DHT22;3081;50.584;7.032;2023-04-02T04:10:21;9.60;99.90
6102;DHT22;3081;50.584;7.032;2023-04-02T04:12:51;9.60;99.90
6102;DHT22;3081;50.584;7.032;2023-04-02T04:15:22;9.60;99.90
6102;DHT22;3081;50.584;7.032;2023-04-02T04:17:56;9.60;99.90
6102;DHT22;3081;50.584;7.032;2023-04-02T04:20:30;9.60;99.90
6102;DHT22;3081;50.584;7.032;2023-04-02T04:23:14;9.60;99.90
6102;DHT22;3081;50.584;7.032;2023-04-02T04:25:43;9.60;99.90
6102;DHT22;3081;50.584;7.032;2023-04-02T04:28:22;9.50;99.90
6102;DHT22;3081;50.584;7.032;2023-04-02T04:30:56;9.50;99.90
6102;DHT22;3081;50.584;7.032;2023-04-02T04:33:27;9.40;99.90
6102;DHT22;3081;50.584;7.032;2023-04-02T04:36:16;9.30;99.90
6102;DHT22;3081;50.584;7.032;2023-04-02T04:38:56;9.20;99.90
6102;DHT22;3081;50.584;7.032;2023-04-02T04:41:28;9.10;99.90
6102;DHT22;3081;50.584;7.032;2023-04-02T04:44:01;9.00;99.90
6102;DHT22;3081;50.584;7.032;2023-04-02T04:46:34;9.00;99.90
6102;DHT22;3081;50.584;7.032;2023-04-02T04:49:07;8.90;99.90
6102;DHT22;3081;50.584;7.032;2023-04-02T04:51:40;8.80;99.90
6102;DHT22;3081;50.584;7.032;2023-04-02T04:54:10;8.70;99.90
6102;DHT22;3081;50.584;7.032;2023-04-02T04:56:38;8.70;99.90
6102;DHT22;3081;50.584;7.032;2023-04-02T04:59:14;8.60;99.90
6102;DHT22;3081;50.584;7.032;2023-04-02T05:01:45;8.60;99.90
6102;DHT22;3081;50.584;7.032;2023-04-02T05:04:16;8.50;99.90
6102;DHT22;3081;50.584;7.032;2023-04-02T05:06:51;8.60;99.90
6102;DHT22;3081;50.584;7.032;2023-04-02T05:09:22;8.50;99.90
6102;DHT22;3081;50.584;7.032;2023-04-02T05:12:01;8.50;99.90
6102;DHT22;3081;50.584;7.032;2023-04-02T05:14:34;8.50;99.90
6102;DHT22;3081;50.584;7.032;2023-04-02T05:17:04;8.50;99.90
6102;DHT22;3081;50.584;7.032;2023-04-02T05:19:38;8.50;99.90
6102;DHT22;3081;50.584;7.032;2023-04-02T05:22:17;8.50;99.90
6102;DHT22;3081;50.584;7.032;2023-04-02T05:24:54;8.40;99.90
6102;DHT22;3081;50.584;7.032;2023-04-02T05:27:32;8.40;99.90
6102;DHT22;3081;50.584;7.032;2023-04-02T05:30:06;8.40;99.90
6102;DHT22;3081;50.584;7.032;2023-04-02T05:32:39;8.30;99.90
6102;DHT22;3081;50.584;7.032;2023-04-02T05:35:14;8.30;99.90
6102;DHT22;3081;50.584;7.032;2023-04-02T05:37:44;8.20;99.90
6102;DHT22;3081;50.584;7.032;2023-04-02T05:40:14;8.20;99.90
6102;DHT22;3081;50.584;7.032;2023-04-02T05:42:48;8.20;99.90
6102;DHT22;3081;50.584;7.032;2023-04-02T05:45:22;8.10;99.90
6102;DHT22;3081;50.584;7.032;2023-04-02T05:47:52;8.10;99.90
6102;DHT22;3081;50.584;7.032;2023-04-02T05:50:27;8.10;99.90
6102;DHT22;3081;50.584;7.032;2023-04-02T05:53:03;8.00;99.90
6102;DHT22;3081;50.584;7.032;2023-04-02T05:55:47;8.00;99.90
6102;DHT22;3081;50.584;7.032;2023-04-02T05:58:21;8.00;99.90
6102;DHT22;3081;50.584;7.032;2023-04-02T06:00:58;7.90;99.90
6102;DHT22;3081;50.584;7.032;2023-04-02T06:03:33;7.90;99.90
6102;DHT22;3081;50.584;7.032;2023-04-02T06:06:06;7.80;99.90
6102;DHT22;3081;50.584;7.032;2023-04-02T06:08:41;7.80;99.90
6102;DHT22;3081;50.584;7.032;2023-04-02T06:11:15;7.70;99.90
6102;DHT22;3081;50.584;7.032;2023-04-02T06:13:44;7.70;99.90
6102;DHT22;3081;50.584;7.032;2023-04-02T06:16:12;7.60;99.90
6102;DHT22;3081;50.584;7.032;2023-04-02T06:18:41;7.60;99.90
6102;DHT22;3081;50.584;7.032;2023-04-02T06:21:13;7.60;99.90
6102;DHT22;3081;50.584;7.032;2023-04-02T06:23:44;7.60;99.90
6102;DHT22;3081;50.584;7.032;2023-04-02T06:26:18;7.60;99.90
6102;DHT22;3081;50.584;7.032;2023-04-02T06:28:49;7.50;99.90
6102;DHT22;3081;50.584;7.032;2023-04-02T06:31:24;7.50;99.90
6102;DHT22;3081;50.584;7.032;2023-04-02T06:33:53;7.50;99.90
6102;DHT22;3081;50.584;7.032;2023-04-02T06:36:21;7.50;99.90
6102;DHT22;3081;50.584;7.032;2023-04-02T06:38:50;7.50;99.90
6102;DHT22;3081;50.584;7.032;2023-04-02T06:41:20;7.50;99.90
6102;DHT22;3081;50.584;7.032;2023-04-02T06:43:50;7.50;99.90
6102;DHT22;3081;50.584;7.032;2023-04-02T06:46:22;7.50;99.90
6102;DHT22;3081;50.584;7.032;2023-04-02T06:48:52;7.60;99.90
6102;DHT22;3081;50.584;7.032;2023-04-02T06:51:23;7.60;99.90
6102;DHT22;3081;50.584;7.032;2023-04-02T06:53:53;7.60;99.90
6102;DHT22;3081;50.584;7.032;2023-04-02T06:56:27;7.60;99.90
6102;DHT22;3081;50.584;7.032;2023-04-02T06:58:57;7.60;99.90
6102;DHT22;3081;50.584;7.032;2023-04-02T07:01:27;7.60;99.90
6102;DHT22;3081;50.584;7.032;2023-04-02T07:03:55;7.60;99.90
6102;DHT22;3081;50.584;7.032;2023-04-02T07:06:22;7.70;99.90
6102;DHT22;3081;50.584;7.032;2023-04-02T07:08:49;7.70;99.90
6102;DHT22;3081;50.584;7.032;2023-04-02T07:11:20;7.60;99.90
6102;DHT22;3081;50.584;7.032;2023-04-02T07:13:48;7.60;99.90
6102;DHT22;3081;50.584;7.032;2023-04-02T07:16:16;7.60;99.90
6102;DHT22;3081;50.584;7.032;2023-04-02T07:18:43;7.60;99.90
6102;DHT22;3081;50.584;7.032;2023-04-02T07:21:10;7.50;99.90
6102;DHT22;3081;50.584;7.032;2023-04-02T07:23:38;7.50;99.90
6102;DHT22;3081;50.584;7.032;2023-04-02T07:26:06;7.60;99.90
6102;DHT22;3081;50.584;7.032;2023-04-02T07:28:34;7.50;99.90
6102;DHT22;3081;50.584;7.032;2023-04-02T07:31:01;7.50;99.90
6102;DHT22;3081;50.584;7.032;2023-04-02T07:33:29;7.50;99.90
6102;DHT22;3081;50.584;7.032;2023-04-02T07:35:57;7.60;99.90
6102;DHT22;3081;50.584;7.032;2023-04-02T07:38:24;7.60;99.90
6102;DHT22;3081;50.584;7.032;2023-04-02T07:40:51;7.60;99.90
6102;DHT22;3081;50.584;7.032;2023-04-02T07:43:18;7.50;99.90
6102;DHT22;3081;50.584;7.032;2023-04-02T07:45:46;7.50;99.90
6102;DHT22;3081;50.584;7.032;2023-04-02T07:48:13;7.50;99.90
6102;DHT22;3081;50.584;7.032;2023-04-02T07:50:40;7.50;99.90
6102;DHT22;3081;50.584;7.032;2023-04-02T07:53:17;7.50;99.90
6102;DHT22;3081;50.584;7.032;2023-04-02T07:55:51;7.40;99.90
6102;DHT22;3081;50.584;7.032;2023-04-02T07:58:18;7.40;99.90
6102;DHT22;3081;50.584;7.032;2023-04-02T08:00:47;7.40;99.90
6102;DHT22;3081;50.584;7.032;2023-04-02T08:03:14;7.50;99.90
6102;DHT22;3081;50.584;7.032;2023-04-02T08:05:41;7.50;99.90
6102;DHT22;3081;50.584;7.032;2023-04-02T08:08:08;7.50;99.90
6102;DHT22;3081;50.584;7.032;2023-04-02T08:10:35;7.60;99.90
6102;DHT22;3081;50.584;7.032;2023-04-02T08:13:01;7.60;99.90
6102;DHT22;3081;50.584;7.032;2023-04-02T08:15:28;7.60;99.90
6102;DHT22;3081;50.584;7.032;2023-04-02T08:17:57;7.60;99.90
6102;DHT22;3081;50.584;7.032;2023-04-02T08:20:23;6.60;99.90
6102;DHT22;3081;50.584;7.032;2023-04-02T08:22:50;7.60;99.90
6102;DHT22;3081;50.584;7.032;2023-04-02T08:25:17;7.70;99.90
6102;DHT22;3081;50.584;7.032;2023-04-02T08:27:46;7.70;99.90
6102;DHT22;3081;50.584;7.032;2023-04-02T08:30:15;7.70;99.90
6102;DHT22;3081;50.584;7.032;2023-04-02T08:32:42;7.70;99.90
6102;DHT22;3081;50.584;7.032;2023-04-02T08:35:13;7.70;99.90
6102;DHT22;3081;50.584;7.032;2023-04-02T08:37:41;7.70;99.90
6102;DHT22;3081;50.584;7.032;2023-04-02T08:40:19;7.80;99.90
6102;DHT22;3081;50.584;7.032;2023-04-02T08:42:51;7.80;99.90
6102;DHT22;3081;50.584;7.032;2023-04-02T08:45:35;7.80;99.90
6102;DHT22;3081;50.584;7.032;2023-04-02T08:48:06;7.80;99.90
6102;DHT22;3081;50.584;7.032;2023-04-02T08:50:38;7.80;99.90
6102;DHT22;3081;50.584;7.032;2023-04-02T08:53:10;7.70;99.90
6102;DHT22;3081;50.584;7.032;2023-04-02T08:55:41;7.10;99.90
6102;DHT22;3081;50.584;7.032;2023-04-02T08:58:20;7.70;99.90
6102;DHT22;3081;50.584;7.032;2023-04-02T09:00:53;7.70;99.90
6102;DHT22;3081;50.584;7.032;2023-04-02T09:03:26;7.70;99.90
6102;DHT22;3081;50.584;7.032;2023-04-02T09:05:56;7.70;99.90
6102;DHT22;3081;50.584;7.032;2023-04-02T09:08:25;7.70;99.90
6102;DHT22;3081;50.584;7.032;2023-04-02T09:10:57;7.70;99.90
6102;DHT22;3081;50.584;7.032;2023-04-02T09:13:29;7.80;99.90
6102;DHT22;3081;50.584;7.032;2023-04-02T09:16:01;7.80;99.90
6102;DHT22;3081;50.584;7.032;2023-04-02T09:18:31;7.70;99.90
6102;DHT22;3081;50.584;7.032;2023-04-02T09:21:01;7.80;99.90
6102;DHT22;3081;50.584;7.032;2023-04-02T09:23:32;7.80;99.90
6102;DHT22;3081;50.584;7.032;2023-04-02T09:25:59;7.80;99.90
6102;DHT22;3081;50.584;7.032;2023-04-02T09:28:26;7.80;99.90
6102;DHT22;3081;50.584;7.032;2023-04-02T09:30:59;7.80;99.90
6102;DHT22;3081;50.584;7.032;2023-04-02T09:33:41;7.80;99.90
6102;DHT22;3081;50.584;7.032;2023-04-02T09:36:33;7.80;99.90
6102;DHT22;3081;50.584;7.032;2023-04-02T09:39:02;7.80;99.90
6102;DHT22;3081;50.584;7.032;2023-04-02T09:41:32;7.90;99.90
6102;DHT22;3081;50.584;7.032;2023-04-02T09:44:21;7.90;99.90
6102;DHT22;3081;50.584;7.032;2023-04-02T09:46:51;8.00;99.90
6102;DHT22;3081;50.584;7.032;2023-04-02T09:49:22;8.00;99.90
6102;DHT22;3081;50.584;7.032;2023-04-02T09:52:24;8.10;99.90
6102;DHT22;3081;50.584;7.032;2023-04-02T09:55:16;8.10;99.90
6102;DHT22;3081;50.584;7.032;2023-04-02T09:57:43;8.00;99.90
6102;DHT22;3081;50.584;7.032;2023-04-02T10:00:18;8.00;99.90
6102;DHT22;3081;50.584;7.032;2023-04-02T10:03:00;8.00;99.90
6102;DHT22;3081;50.584;7.032;2023-04-02T10:05:29;8.00;99.90
6102;DHT22;3081;50.584;7.032;2023-04-02T10:08:07;7.90;99.90
6102;DHT22;3081;50.584;7.032;2023-04-02T10:10:38;7.90;99.90
6102;DHT22;3081;50.584;7.032;2023-04-02T10:13:08;7.90;99.90
6102;DHT22;3081;50.584;7.032;2023-04-02T10:15:43;7.90;99.90
6102;DHT22;3081;50.584;7.032;2023-04-02T10:18:15;7.90;99.90
6102;DHT22;3081;50.584;7.032;2023-04-02T10:20:46;7.90;99.90
6102;DHT22;3081;50.584;7.032;2023-04-02T10:23:18;8.30;99.90
6102;DHT22;3081;50.584;7.032;2023-04-02T10:25:51;7.80;99.90
6102;DHT22;3081;50.584;7.032;2023-04-02T10:28:31;7.80;99.90
6102;DHT22;3081;50.584;7.032;2023-04-02T10:31:07;7.80;99.90
6102;DHT22;3081;50.584;7.032;2023-04-02T10:33:39;7.80;99.90
6102;DHT22;3081;50.584;7.032;2023-04-02T10:36:17;7.80;99.90
6102;DHT22;3081;50.584;7.032;2023-04-02T10:38:50;7.80;99.90
6102;DHT22;3081;50.584;7.032;2023-04-02T10:41:27;7.90;99.90
6102;DHT22;3081;50.584;7.032;2023-04-02T10:44:06;7.90;99.90
6102;DHT22;3081;50.584;7.032;2023-04-02T10:46:47;8.00;99.90
6102;DHT22;3081;50.584;7.032;2023-04-02T10:49:23;8.10;99.90
6102;DHT22;3081;50.584;7.032;2023-04-02T10:51:58;8.00;99.90
6102;DHT22;3081;50.584;7.032;2023-04-02T10:54:44;8.00;99.90
6102;DHT22;3081;50.584;7.032;2023-04-02T10:57:22;8.00;99.90
6102;DHT22;3081;50.584;7.032;2023-04-02T10:59:55;8.00;99.90
6102;DHT22;3081;50.584;7.032;2023-04-02T11:02:33;7.90;99.90
6102;DHT22;3081;50.584;7.032;2023-04-02T11:05:06;7.90;99.90
6102;DHT22;3081;50.584;7.032;2023-04-02T11:07:48;7.90;99.90
6102;DHT22;3081;50.584;7.032;2023-04-02T11:10:19;7.90;99.90
6102;DHT22;3081;50.584;7.032;2023-04-02T11:12:51;7.90;99.90
6102;DHT22;3081;50.584;7.032;2023-04-02T11:15:21;7.90;99.90
6102;DHT22;3081;50.584;7.032;2023-04-02T11:17:48;7.90;99.90
6102;DHT22;3081;50.584;7.032;2023-04-02T11:20:40;7.80;99.90
6102;DHT22;3081;50.584;7.032;2023-04-02T11:23:09;7.90;99.90
6102;DHT22;3081;50.584;7.032;2023-04-02T11:25:38;7.90;99.90
6102;DHT22;3081;50.584;7.032;2023-04-02T11:28:24;7.90;99.90
6102;DHT22;3081;50.584;7.032;2023-04-02T11:30:53;7.90;99.90
6102;DHT22;3081;50.584;7.032;2023-04-02T11:33:37;7.90;99.90
6102;DHT22;3081;50.584;7.032;2023-04-02T11:39:44;8.00;99.90
6102;DHT22;3081;50.584;7.032;2023-04-02T11:42:24;8.00;99.90
6102;DHT22;3081;50.584;7.032;2023-04-02T11:44:52;8.10;99.90
6102;DHT22;3081;50.584;7.032;2023-04-02T11:47:20;8.10;99.90
6102;DHT22;3081;50.584;7.032;2023-04-02T11:50:22;8.10;99.90
6102;DHT22;3081;50.584;7.032;2023-04-02T11:52:53;8.10;99.90
6102;DHT22;3081;50.584;7.032;2023-04-02T11:55:29;8.10;99.90
6102;DHT22;3081;50.584;7.032;2023-04-02T12:07:22;8.50;99.90
6102;DHT22;3081;50.584;7.032;2023-04-02T12:09:54;8.70;99.90
6102;DHT22;3081;50.584;7.032;2023-04-02T12:12:25;8.80;99.90
6102;DHT22;3081;50.584;7.032;2023-04-02T12:14:55;8.90;99.90
6102;DHT22;3081;50.584;7.032;2023-04-02T12:17:27;9.00;99.90
6102;DHT22;3081;50.584;7.032;2023-04-02T12:19:56;9.10;99.90
6102;DHT22;3081;50.584;7.032;2023-04-02T12:22:26;9.20;99.90
6102;DHT22;3081;50.584;7.032;2023-04-02T12:24:57;9.20;99.90
6102;DHT22;3081;50.584;7.032;2023-04-02T12:27:27;9.20;99.90
6102;DHT22;3081;50.584;7.032;2023-04-02T12:30:10;9.10;99.90
6102;DHT22;3081;50.584;7.032;2023-04-02T12:32:37;9.10;99.90
6102;DHT22;3081;50.584;7.032;2023-04-02T12:35:05;9.10;99.90
6102;DHT22;3081;50.584;7.032;2023-04-02T12:37:33;9.10;99.90
6102;DHT22;3081;50.584;7.032;2023-04-02T12:40:02;9.00;99.90
6102;DHT22;3081;50.584;7.032;2023-04-02T12:42:32;9.10;99.90
6102;DHT22;3081;50.584;7.032;2023-04-02T12:45:02;9.20;99.90
6102;DHT22;3081;50.584;7.032;2023-04-02T12:47:30;9.20;99.90
6102;DHT22;3081;50.584;7.032;2023-04-02T12:49:58;9.20;99.90
6102;DHT22;3081;50.584;7.032;2023-04-02T12:52:27;9.30;99.90
6102;DHT22;3081;50.584;7.032;2023-04-02T12:54:56;9.20;99.90
6102;DHT22;3081;50.584;7.032;2023-04-02T12:57:33;9.20;99.90
6102;DHT22;3081;50.584;7.032;2023-04-02T13:00:30;9.20;99.90
6102;DHT22;3081;50.584;7.032;2023-04-02T13:05:45;9.20;99.90
6102;DHT22;3081;50.584;7.032;2023-04-02T13:08:16;9.10;99.90
6102;DHT22;3081;50.584;7.032;2023-04-02T13:10:44;9.00;99.90
6102;DHT22;3081;50.584;7.032;2023-04-02T13:13:15;8.90;99.90
6102;DHT22;3081;50.584;7.032;2023-04-02T13:15:43;8.90;99.90
6102;DHT22;3081;50.584;7.032;2023-04-02T13:18:19;8.90;99.90
6102;DHT22;3081;50.584;7.032;2023-04-02T13:20:55;8.80;99.90
6102;DHT22;3081;50.584;7.032;2023-04-02T13:23:30;8.80;99.90
6102;DHT22;3081;50.584;7.032;2023-04-02T13:25:59;8.80;99.90
6102;DHT22;3081;50.584;7.032;2023-04-02T13:28:26;8.80;99.90
6102;DHT22;3081;50.584;7.032;2023-04-02T13:30:55;8.80;99.90
6102;DHT22;3081;50.584;7.032;2023-04-02T13:33:22;8.70;99.90
6102;DHT22;3081;50.584;7.032;2023-04-02T13:35:49;8.80;99.90
6102;DHT22;3081;50.584;7.032;2023-04-02T13:38:15;8.80;99.90
6102;DHT22;3081;50.584;7.032;2023-04-02T13:40:42;8.90;99.90
6102;DHT22;3081;50.584;7.032;2023-04-02T13:43:15;8.90;99.90
6102;DHT22;3081;50.584;7.032;2023-04-02T13:45:45;8.90;99.90
6102;DHT22;3081;50.584;7.032;2023-04-02T13:48:15;8.90;99.90
6102;DHT22;3081;50.584;7.032;2023-04-02T13:50:43;9.00;99.90
6102;DHT22;3081;50.584;7.032;2023-04-02T13:53:18;9.10;99.90
6102;DHT22;3081;50.584;7.032;2023-04-02T13:55:47;9.10;99.90
6102;DHT22;3081;50.584;7.032;2023-04-02T13:58:14;9.20;99.90
6102;DHT22;3081;50.584;7.032;2023-04-02T14:00:41;9.30;99.90
6102;DHT22;3081;50.584;7.032;2023-04-02T14:03:10;9.30;99.90
6102;DHT22;3081;50.584;7.032;2023-04-02T14:05:45;9.30;99.90
6102;DHT22;3081;50.584;7.032;2023-04-02T14:08:19;9.30;99.90
6102;DHT22;3081;50.584;7.032;2023-04-02T14:11:01;9.30;99.90
6102;DHT22;3081;50.584;7.032;2023-04-02T14:13:52;9.30;99.90
6102;DHT22;3081;50.584;7.032;2023-04-02T14:16:38;9.40;99.90
6102;DHT22;3081;50.584;7.032;2023-04-02T14:19:20;9.30;99.90
6102;DHT22;3081;50.584;7.032;2023-04-02T14:22:00;9.30;99.90
6102;DHT22;3081;50.584;7.032;2023-04-02T14:24:33;9.20;99.90
6102;DHT22;3081;50.584;7.032;2023-04-02T14:27:09;9.20;99.90
6102;DHT22;3081;50.584;7.032;2023-04-02T14:29:45;9.10;99.90
6102;DHT22;3081;50.584;7.032;2023-04-02T14:32:18;9.00;99.90
6102;DHT22;3081;50.584;7.032;2023-04-02T14:34:54;9.00;99.90
6102;DHT22;3081;50.584;7.032;2023-04-02T14:37:33;9.00;99.90
6102;DHT22;3081;50.584;7.032;2023-04-02T14:40:12;9.00;99.90
6102;DHT22;3081;50.584;7.032;2023-04-02T14:42:46;8.90;99.90
6102;DHT22;3081;50.584;7.032;2023-04-02T14:45:26;8.90;99.90
6102;DHT22;3081;50.584;7.032;2023-04-02T14:47:58;8.80;99.90
6102;DHT22;3081;50.584;7.032;2023-04-02T14:50:32;8.70;99.90
6102;DHT22;3081;50.584;7.032;2023-04-02T14:53:11;8.60;99.90
6102;DHT22;3081;50.584;7.032;2023-04-02T14:55:40;8.50;99.90
6102;DHT22;3081;50.584;7.032;2023-04-02T14:58:15;8.50;99.90
6102;DHT22;3081;50.584;7.032;2023-04-02T15:04:10;8.40;99.90
6102;DHT22;3081;50.584;7.032;2023-04-02T15:06:41;8.40;99.90
6102;DHT22;3081;50.584;7.032;2023-04-02T15:09:14;8.40;99.90
6102;DHT22;3081;50.584;7.032;2023-04-02T15:11:46;8.40;99.90
6102;DHT22;3081;50.584;7.032;2023-04-02T15:14:17;8.40;99.90
6102;DHT22;3081;50.584;7.032;2023-04-02T15:16:45;8.30;99.90
6102;DHT22;3081;50.584;7.032;2023-04-02T15:19:13;8.30;99.90
6102;DHT22;3081;50.584;7.032;2023-04-02T15:21:49;8.30;99.90
6102;DHT22;3081;50.584;7.032;2023-04-02T15:24:29;8.30;99.90
6102;DHT22;3081;50.584;7.032;2023-04-02T15:27:03;8.30;99.90
6102;DHT22;3081;50.584;7.032;2023-04-02T15:29:43;8.30;99.90
6102;DHT22;3081;50.584;7.032;2023-04-02T15:32:22;8.30;99.90
6102;DHT22;3081;50.584;7.032;2023-04-02T15:34:56;8.30;99.90
6102;DHT22;3081;50.584;7.032;2023-04-02T15:37:30;8.20;99.90
6102;DHT22;3081;50.584;7.032;2023-04-02T15:40:27;8.20;99.90
6102;DHT22;3081;50.584;7.032;2023-04-02T15:43:00;8.20;99.90
6102;DHT22;3081;50.584;7.032;2023-04-02T15:45:37;8.20;99.90
6102;DHT22;3081;50.584;7.032;2023-04-02T15:48:23;8.20;99.90
6102;DHT22;3081;50.584;7.032;2023-04-02T15:51:01;8.10;99.90
6102;DHT22;3081;50.584;7.032;2023-04-02T15:53:40;8.10;99.90
6102;DHT22;3081;50.584;7.032;2023-04-02T15:56:20;8.10;99.90
6102;DHT22;3081;50.584;7.032;2023-04-02T15:58:59;8.10;99.90
6102;DHT22;3081;50.584;7.032;2023-04-02T16:01:34;8.10;99.90
6102;DHT22;3081;50.584;7.032;2023-04-02T16:04:24;8.10;99.90
6102;DHT22;3081;50.584;7.032;2023-04-02T16:07:26;8.00;99.90
6102;DHT22;3081;50.584;7.032;2023-04-02T16:10:04;8.00;99.90
6102;DHT22;3081;50.584;7.032;2023-04-02T16:12:36;8.00;99.90
6102;DHT22;3081;50.584;7.032;2023-04-02T16:15:13;8.00;99.90
6102;DHT22;3081;50.584;7.032;2023-04-02T16:17:45;7.90;99.90
6102;DHT22;3081;50.584;7.032;2023-04-02T16:20:19;7.90;99.90
6102;DHT22;3081;50.584;7.032;2023-04-02T16:22:51;7.90;99.90
6102;DHT22;3081;50.584;7.032;2023-04-02T16:25:23;7.90;99.90
6102;DHT22;3081;50.584;7.032;2023-04-02T16:28:03;7.80;99.90
6102;DHT22;3081;50.584;7.032;2023-04-02T16:30:40;7.80;99.90
6102;DHT22;3081;50.584;7.032;2023-04-02T16:33:31;7.80;99.90
6102;DHT22;3081;50.584;7.032;2023-04-02T16:36:10;7.80;99.90
6102;DHT22;3081;50.584;7.032;2023-04-02T16:38:49;7.80;99.90
6102;DHT22;3081;50.584;7.032;2023-04-02T16:41:24;7.70;99.90
6102;DHT22;3081;50.584;7.032;2023-04-02T16:44:00;7.80;99.90
6102;DHT22;3081;50.584;7.032;2023-04-02T16:46:35;7.70;99.90
6102;DHT22;3081;50.584;7.032;2023-04-02T16:49:14;7.70;99.90
6102;DHT22;3081;50.584;7.032;2023-04-02T16:51:52;7.70;99.90
6102;DHT22;3081;50.584;7.032;2023-04-02T16:54:26;7.60;99.90
6102;DHT22;3081;50.584;7.032;2023-04-02T16:57:10;7.60;99.90
6102;DHT22;3081;50.584;7.032;2023-04-02T16:59:44;7.50;99.90
6102;DHT22;3081;50.584;7.032;2023-04-02T17:02:25;7.50;99.90
6102;DHT22;3081;50.584;7.032;2023-04-02T17:05:05;7.50;99.90
6102;DHT22;3081;50.584;7.032;2023-04-02T17:07:42;7.50;99.90
6102;DHT22;3081;50.584;7.032;2023-04-02T17:10:22;7.50;99.90
6102;DHT22;3081;50.584;7.032;2023-04-02T17:12:54;7.40;99.90
6102;DHT22;3081;50.584;7.032;2023-04-02T17:15:26;7.40;99.90
6102;DHT22;3081;50.584;7.032;2023-04-02T17:17:56;7.40;99.90
6102;DHT22;3081;50.584;7.032;2023-04-02T17:20:25;7.30;99.90